createdAt,value
2022-11-24T18:43:53.318Z,60.9
2022-11-24T18:49:10.886Z,61
2022-11-24T18:54:28.449Z,61.1
2022-11-24T18:59:45.040Z,61.2
2022-11-24T19:05:01.644Z,61.2
2022-11-24T19:10:19.351Z,61.1
2022-11-24T19:15:35.935Z,61
2022-11-24T19:20:53.495Z,61.1
2022-11-24T19:26:11.073Z,61.1
2022-11-24T19:31:28.642Z,61.2
2022-11-24T19:36:46.213Z,61.3
2022-11-24T19:42:03.785Z,61.3
2022-11-24T19:47:21.356Z,61.3
2022-11-24T19:52:38.922Z,61.3
2022-11-24T19:57:56.477Z,61.3
2022-11-24T20:03:14.057Z,61.3
2022-11-24T20:08:31.624Z,61.2
2022-11-24T20:13:49.205Z,61.2
2022-11-24T20:19:06.762Z,61.2
2022-11-24T20:24:23.345Z,61.1
2022-11-24T20:29:40.917Z,61
2022-11-24T20:34:58.486Z,60.8
2022-11-24T20:40:16.068Z,60.8
2022-11-24T20:45:33.642Z,60.8
2022-11-24T20:50:51.193Z,60.7
2022-11-24T20:56:08.776Z,60.7
2022-11-24T21:01:25.357Z,60.7
2022-11-24T21:06:41.948Z,60.7
2022-11-24T21:11:58.536Z,60.6
2022-11-24T21:17:15.125Z,60.7
2022-11-24T21:22:32.701Z,60.7
2022-11-24T21:27:50.279Z,60.7
2022-11-24T21:33:07.831Z,60.7
2022-11-24T21:38:25.417Z,60.6
2022-11-24T21:43:42.988Z,60.5
2022-11-24T21:49:00.542Z,60.4
2022-11-24T21:54:18.116Z,60.4
2022-11-24T21:59:35.685Z,60.3
2022-11-24T22:04:53.255Z,60.2
2022-11-24T22:10:10.834Z,60.1
2022-11-24T22:15:28.399Z,59.9
2022-11-24T22:20:45.966Z,59.8
2022-11-24T22:26:02.561Z,59.7
2022-11-24T22:31:20.122Z,59.6
2022-11-24T22:36:37.689Z,59.6
2022-11-24T22:41:55.273Z,59.5
2022-11-24T22:47:12.826Z,59.5
2022-11-24T22:52:30.395Z,59.5
2022-11-24T22:57:47.973Z,59.5
2022-11-24T23:03:04.564Z,59.4
2022-11-24T23:08:21.153Z,59.4
2022-11-24T23:13:38.724Z,59.4
2022-11-24T23:18:56.300Z,59.4
2022-11-24T23:24:13.863Z,59.3
2022-11-24T23:29:31.436Z,59.3
2022-11-24T23:34:48.000Z,59.3
2022-11-24T23:40:06.559Z,59.2
2022-11-24T23:45:24.135Z,59.2
2022-11-24T23:50:41.708Z,59.2
2022-11-24T23:55:59.277Z,59.2
